Time;durP1;ratioP1;P1;durP2;ratioP2;P2;SDS_P1;SDS_P2;PMS_P1;PMS_P2;Temp;Humidity;BMP_temperature;BMP_pressure;BME280_temperature;BME280_humidity;BME280_pressure;Samples;Min_cycle;Max_cycle;Signal;HPM_P1;HPM_P2
2022/10/13 00:08:02;;;;;;;34.13;20.90;;;13.10;99.90;;;;;;20842483;28;20208;-76
2022/10/13 00:18:03;;;;;;;31.10;19.00;;;13.10;99.90;;;;;;20842713;28;20575;-76
2022/10/13 00:28:05;;;;;;;33.67;19.03;;;13.20;99.90;;;;;;20842368;28;20212;-77
2022/10/13 00:38:07;;;;;;;34.43;20.23;;;13.20;99.90;;;;;;20840666;28;20237;-74
2022/10/13 00:48:08;;;;;;;31.27;19.60;;;13.20;99.90;;;;;;20841363;28;20669;-77
2022/10/13 00:58:15;;;;;;;30.43;19.43;;;13.00;99.90;;;;;;20839958;28;20235;-74
2022/10/13 01:08:17;;;;;;;44.17;22.30;;;12.90;99.90;;;;;;20839213;28;20370;-74
2022/10/13 01:18:22;;;;;;;35.07;20.97;;;12.80;99.90;;;;;;20838843;28;20643;-77
2022/10/13 01:29:02;;;;;;;33.97;20.50;;;12.70;99.90;;;;;;20838981;28;20196;-76
2022/10/13 01:50:18;;;;;;;50.23;24.23;;;12.60;99.90;;;;;;20834214;28;20683;-74
2022/10/13 02:00:21;;;;;;;49.27;24.13;;;12.60;99.90;;;;;;20837204;28;20579;-76
2022/10/13 02:10:33;;;;;;;39.80;22.60;;;12.50;99.90;;;;;;20834075;28;20282;-76
2022/10/13 02:20:36;;;;;;;43.53;22.80;;;12.50;99.90;;;;;;20834683;28;20228;-75
2022/10/13 02:30:40;;;;;;;36.50;21.27;;;12.50;99.90;;;;;;20834012;28;20722;-76
2022/10/13 02:40:41;;;;;;;32.00;19.37;;;12.50;99.90;;;;;;20832122;28;20212;-78
2022/10/13 02:50:43;;;;;;;35.00;20.47;;;12.40;99.90;;;;;;20831523;28;20247;-78
2022/10/13 03:00:45;;;;;;;43.37;21.40;;;12.30;99.90;;;;;;20830990;28;20238;-76
2022/10/13 03:10:46;;;;;;;35.27;19.67;;;12.20;99.90;;;;;;20830032;28;20232;-76
2022/10/13 03:21:00;;;;;;;37.13;20.93;;;12.20;99.90;;;;;;20830029;28;20212;-77
2022/10/13 03:31:05;;;;;;;36.30;21.50;;;12.30;99.90;;;;;;20829764;28;20230;-77
2022/10/13 03:41:12;;;;;;;41.23;21.33;;;12.30;99.90;;;;;;20829166;28;20208;-77
2022/10/13 03:51:17;;;;;;;42.67;22.57;;;12.40;99.90;;;;;;20828852;28;20235;-77
2022/10/13 04:01:20;;;;;;;39.97;21.67;;;12.30;99.90;;;;;;20829088;28;20210;-77
2022/10/13 04:11:22;;;;;;;41.70;21.87;;;12.30;99.90;;;;;;20827890;28;20291;-77
2022/10/13 04:21:25;;;;;;;36.80;20.73;;;12.40;99.90;;;;;;20841709;28;20273;-77
2022/10/13 04:31:28;;;;;;;40.20;22.57;;;12.40;99.90;;;;;;20841625;28;20687;-77
2022/10/13 04:41:29;;;;;;;39.30;21.27;;;12.40;99.90;;;;;;20841278;28;20208;-78
2022/10/13 04:51:31;;;;;;;49.60;21.97;;;12.40;99.90;;;;;;20840432;28;20232;-78
2022/10/13 05:01:34;;;;;;;47.77;24.23;;;12.20;99.90;;;;;;20839683;28;20207;-78
2022/10/13 05:11:36;;;;;;;58.37;25.90;;;11.90;99.90;;;;;;20838270;28;20726;-76
2022/10/13 05:21:38;;;;;;;50.70;24.43;;;11.90;99.90;;;;;;20841117;28;20215;-78
2022/10/13 05:31:40;;;;;;;45.37;25.43;;;12.10;99.90;;;;;;20837395;28;20282;-79
2022/10/13 05:41:41;;;;;;;41.70;24.10;;;12.20;99.90;;;;;;20880614;28;20208;-75
2022/10/13 05:51:47;;;;;;;43.07;21.03;;;12.20;99.90;;;;;;20917102;28;20231;-74
2022/10/13 06:01:50;;;;;;;37.97;20.47;;;12.30;99.90;;;;;;20915771;28;20211;-75
2022/10/13 06:11:51;;;;;;;32.07;20.23;;;12.40;99.90;;;;;;20915060;28;20330;-75
2022/10/13 06:21:53;;;;;;;33.60;19.77;;;12.50;99.90;;;;;;20914609;28;20576;-75
2022/10/13 06:31:55;;;;;;;39.67;19.53;;;12.70;99.90;;;;;;20913512;28;20511;-75
2022/10/13 06:41:56;;;;;;;44.60;19.23;;;12.80;99.90;;;;;;20913409;28;20655;-75
2022/10/13 06:51:58;;;;;;;34.43;18.67;;;12.90;99.90;;;;;;20912418;28;20247;-73
2022/10/13 07:02:00;;;;;;;39.87;19.40;;;13.00;99.90;;;;;;20911311;28;20208;-74
2022/10/13 07:12:01;;;;;;;44.03;21.73;;;13.10;99.90;;;;;;20910446;28;20274;-73
2022/10/13 07:22:03;;;;;;;36.13;19.93;;;13.20;99.90;;;;;;20910166;28;20209;-73
2022/10/13 07:32:06;;;;;;;38.57;20.03;;;13.40;99.90;;;;;;20910749;28;20233;-75
2022/10/13 07:42:07;;;;;;;30.83;16.87;;;13.50;99.90;;;;;;20910134;28;20230;-74
2022/10/13 07:52:09;;;;;;;30.93;16.17;;;13.70;99.90;;;;;;20903557;28;20226;-74
2022/10/13 08:02:11;;;;;;;31.53;17.37;;;13.80;99.90;;;;;;20843210;28;20670;-75
2022/10/13 08:12:12;;;;;;;34.80;18.03;;;13.90;99.90;;;;;;20842538;28;20598;-75
2022/10/13 08:22:14;;;;;;;30.80;18.07;;;14.10;99.90;;;;;;20841076;28;20208;-73
2022/10/13 08:32:16;;;;;;;31.40;17.60;;;14.20;99.90;;;;;;20840711;28;20232;-75
2022/10/13 08:42:20;;;;;;;30.20;16.70;;;14.40;99.90;;;;;;20839341;28;20212;-75
2022/10/13 08:52:26;;;;;;;31.93;16.13;;;14.70;99.90;;;;;;20838687;28;20264;-74
2022/10/13 09:02:30;;;;;;;30.00;15.37;;;15.00;99.90;;;;;;20837996;28;20211;-74
2022/10/13 09:12:32;;;;;;;23.87;15.20;;;15.10;99.90;;;;;;20837098;28;20251;-75
2022/10/13 09:22:38;;;;;;;27.73;15.20;;;15.30;99.90;;;;;;20836785;28;20204;-75
2022/10/13 09:32:40;;;;;;;26.37;15.00;;;15.50;99.90;;;;;;20836290;28;20228;-75
2022/10/13 09:42:48;;;;;;;27.17;16.53;;;15.70;99.90;;;;;;20835320;28;20207;-75
2022/10/13 09:52:50;;;;;;;23.53;13.67;;;15.80;99.90;;;;;;20833222;28;20278;-74
2022/10/13 10:03:09;;;;;;;30.40;15.70;;;16.00;99.90;;;;;;20833620;28;20232;-72
2022/10/13 10:13:13;;;;;;;23.93;15.67;;;16.00;99.90;;;;;;20835917;28;20248;-76
2022/10/13 10:23:21;;;;;;;21.70;14.90;;;16.20;99.90;;;;;;20836764;28;20554;-73
2022/10/13 10:33:43;;;;;;;24.17;12.93;;;16.50;99.80;;;;;;20829675;28;20241;-73
2022/10/13 10:43:55;;;;;;;26.30;13.13;;;16.70;99.50;;;;;;20831369;28;20219;-73
2022/10/13 10:54:38;;;;;;;20.47;13.27;;;16.80;99.20;;;;;;20829958;28;20296;-74
2022/10/13 11:04:45;;;;;;;22.00;11.80;;;16.80;98.90;;;;;;20828340;28;20289;-75
2022/10/13 11:14:53;;;;;;;26.90;11.57;;;17.10;98.30;;;;;;20828701;28;20717;-73
2022/10/13 11:25:33;;;;;;;20.20;11.70;;;17.10;98.60;;;;;;20827945;28;20214;-73
2022/10/13 11:35:35;;;;;;;18.30;9.97;;;17.20;98.40;;;;;;20827294;28;20245;-74
2022/10/13 11:46:04;;;;;;;15.40;9.53;;;17.20;98.20;;;;;;20827230;28;20205;-74
2022/10/13 11:56:21;;;;;;;22.50;11.27;;;17.10;98.00;;;;;;20826121;28;20234;-72
2022/10/13 12:06:31;;;;;;;19.10;10.90;;;17.00;97.80;;;;;;20852969;28;20652;-73
2022/10/13 12:16:33;;;;;;;20.27;9.37;;;17.00;97.80;;;;;;20908511;28;20240;-74
2022/10/13 12:26:36;;;;;;;13.80;7.63;;;17.00;97.50;;;;;;20908410;28;20663;-74
2022/10/13 12:36:37;;;;;;;28.63;20.43;;;17.10;97.30;;;;;;20912980;28;20233;-73
2022/10/13 12:46:42;;;;;;;16.60;9.70;;;17.10;97.10;;;;;;20921947;28;20269;-76
2022/10/13 12:56:44;;;;;;;15.90;8.97;;;16.90;96.80;;;;;;20919633;28;20241;-74
2022/10/13 13:06:56;;;;;;;17.30;9.27;;;16.90;97.20;;;;;;20918265;28;20216;-74
2022/10/13 13:17:09;;;;;;;19.57;9.53;;;16.90;97.50;;;;;;20919718;28;20782;-74
2022/10/13 13:27:25;;;;;;;21.07;9.67;;;16.80;97.80;;;;;;20918430;28;20212;-73
2022/10/13 13:37:37;;;;;;;26.37;11.37;;;16.70;98.00;;;;;;20918682;28;20276;-73
2022/10/13 13:47:39;;;;;;;15.93;8.60;;;16.60;97.90;;;;;;20917457;28;20219;-73
2022/10/13 13:57:42;;;;;;;20.03;9.37;;;16.70;98.20;;;;;;20875475;28;20284;-74
2022/10/13 14:07:44;;;;;;;21.90;11.53;;;16.70;98.20;;;;;;20833799;28;20210;-73
2022/10/13 14:17:45;;;;;;;16.17;8.53;;;16.70;98.20;;;;;;20832820;28;20248;-73
2022/10/13 14:27:47;;;;;;;15.93;8.67;;;16.60;98.20;;;;;;20832610;28;20208;-73
2022/10/13 14:37:49;;;;;;;19.07;8.57;;;16.60;98.20;;;;;;20830564;28;20635;-73
2022/10/13 14:47:52;;;;;;;16.50;9.60;;;16.70;98.30;;;;;;20830549;28;20206;-73
2022/10/13 14:57:54;;;;;;;17.40;10.20;;;16.70;98.30;;;;;;20829292;28;20275;-79
2022/10/13 15:07:55;;;;;;;17.17;8.93;;;16.60;98.40;;;;;;20830163;28;20217;-77
2022/10/13 15:17:57;;;;;;;14.97;8.97;;;16.70;98.50;;;;;;20829642;28;20239;-78
2022/10/13 15:27:59;;;;;;;15.77;8.67;;;16.80;98.60;;;;;;20829749;28;20558;-79
2022/10/13 15:38:00;;;;;;;16.77;9.30;;;16.80;98.60;;;;;;20828953;28;20271;-79
2022/10/13 15:48:04;;;;;;;16.93;8.97;;;16.80;98.70;;;;;;20828792;28;20197;-76
2022/10/13 15:58:06;;;;;;;18.93;9.23;;;16.80;98.80;;;;;;20884325;28;20597;-73
2022/10/13 16:08:14;;;;;;;16.87;9.60;;;16.70;98.90;;;;;;20888546;28;20299;-73
2022/10/13 16:18:15;;;;;;;17.83;9.87;;;16.70;99.10;;;;;;20905799;28;20570;-72
2022/10/13 16:28:17;;;;;;;20.60;10.37;;;16.60;99.20;;;;;;20925700;28;20211;-75
2022/10/13 16:38:19;;;;;;;16.73;9.93;;;16.60;99.40;;;;;;20924316;28;20235;-73
2022/10/13 16:48:20;;;;;;;21.67;11.03;;;16.50;99.60;;;;;;20872180;28;20216;-71
2022/10/13 16:58:22;;;;;;;21.03;10.80;;;16.50;99.90;;;;;;20844815;28;20233;-76
2022/10/13 17:08:24;;;;;;;18.77;11.80;;;16.40;99.90;;;;;;20846540;28;20236;-77
2022/10/13 17:18:26;;;;;;;18.30;10.63;;;16.30;99.90;;;;;;20846628;28;20235;-81
2022/10/13 17:28:28;;;;;;;20.03;10.33;;;16.20;99.90;;;;;;20842596;28;20208;-74
2022/10/13 17:38:30;;;;;;;18.37;11.43;;;16.20;99.90;;;;;;20837608;28;20588;-74
2022/10/13 17:48:32;;;;;;;19.20;11.57;;;16.10;99.90;;;;;;20838238;28;20976;-74
2022/10/13 17:58:38;;;;;;;18.20;11.33;;;16.00;99.90;;;;;;20836740;28;20339;-71
2022/10/13 18:08:40;;;;;;;23.63;11.80;;;16.00;99.90;;;;;;20834868;28;20235;-71
2022/10/13 18:18:43;;;;;;;24.20;12.73;;;15.90;99.90;;;;;;20888298;28;20236;-73
2022/10/13 18:28:46;;;;;;;19.87;12.70;;;15.90;99.90;;;;;;20918824;28;20212;-73
2022/10/13 18:38:49;;;;;;;24.60;12.70;;;15.90;99.90;;;;;;20895295;28;20232;-74
2022/10/13 18:48:51;;;;;;;21.90;14.03;;;15.90;99.90;;;;;;20831465;28;20207;-71
2022/10/13 18:58:55;;;;;;;27.67;17.87;;;15.90;99.90;;;;;;20830722;28;20228;-72
2022/10/13 19:09:03;;;;;;;21.97;12.53;;;15.80;99.90;;;;;;20924613;28;20228;-73
2022/10/13 19:19:07;;;;;;;20.20;12.87;;;15.80;99.90;;;;;;20973289;28;20266;-72
2022/10/13 19:29:12;;;;;;;25.97;13.63;;;15.70;99.90;;;;;;20912383;28;20212;-71
2022/10/13 19:39:22;;;;;;;23.33;14.73;;;15.60;99.90;;;;;;20955626;28;20222;-72
2022/10/13 19:49:25;;;;;;;24.00;15.63;;;15.60;99.90;;;;;;21005795;28;20238;-72
2022/10/13 19:59:27;;;;;;;28.47;17.17;;;15.50;99.90;;;;;;21010504;28;20241;-73
2022/10/13 20:09:28;;;;;;;36.93;19.10;;;15.50;99.90;;;;;;21009161;28;20593;-72
2022/10/13 20:19:30;;;;;;;29.03;17.20;;;15.40;99.90;;;;;;21008808;28;20231;-72
2022/10/13 20:29:32;;;;;;;27.07;18.00;;;15.40;99.90;;;;;;21008380;28;20561;-72
2022/10/13 20:39:33;;;;;;;28.90;17.60;;;15.30;99.90;;;;;;21006951;28;20227;-72
2022/10/13 20:49:35;;;;;;;25.70;15.70;;;15.40;99.90;;;;;;21006580;28;20207;-72
2022/10/13 20:59:37;;;;;;;27.57;15.27;;;15.30;99.90;;;;;;21005491;28;20236;-72
2022/10/13 21:09:38;;;;;;;27.17;14.73;;;15.20;99.90;;;;;;20939450;28;20240;-71
2022/10/13 21:19:40;;;;;;;21.57;14.57;;;15.20;99.90;;;;;;20834927;28;20591;-72
2022/10/13 21:29:42;;;;;;;23.83;14.17;;;15.10;99.90;;;;;;20838005;28;20235;-73
2022/10/13 21:39:44;;;;;;;23.37;14.07;;;15.10;99.90;;;;;;20837171;28;20243;-72
2022/10/13 21:49:45;;;;;;;22.30;13.97;;;15.10;99.90;;;;;;20836717;28;20569;-73
2022/10/13 21:59:47;;;;;;;21.87;13.57;;;15.10;99.90;;;;;;20836231;28;20240;-71
2022/10/13 22:09:48;;;;;;;20.13;14.30;;;15.10;99.90;;;;;;20834885;28;20243;-72
2022/10/13 22:19:50;;;;;;;26.53;15.80;;;15.10;99.90;;;;;;20872945;28;20246;-72
2022/10/13 22:29:52;;;;;;;29.47;17.20;;;15.10;99.90;;;;;;20912640;28;20247;-73
2022/10/13 22:39:54;;;;;;;25.40;16.43;;;15.10;99.90;;;;;;20915223;28;20691;-73
2022/10/13 22:49:55;;;;;;;25.80;15.63;;;15.20;99.90;;;;;;20914602;28;20219;-74
2022/10/13 22:59:57;;;;;;;16.07;10.13;;;15.20;99.90;;;;;;20913098;28;20758;-73
2022/10/13 23:09:59;;;;;;;16.83;10.90;;;15.20;99.90;;;;;;20913164;28;20238;-73
2022/10/13 23:20:00;;;;;;;15.03;9.17;;;15.10;99.90;;;;;;20912281;28;20234;-73
2022/10/13 23:30:03;;;;;;;12.50;8.20;;;15.10;99.90;;;;;;20912649;28;20215;-73
2022/10/13 23:40:05;;;;;;;13.53;8.93;;;15.10;99.90;;;;;;20911838;28;20239;-73
2022/10/13 23:50:07;;;;;;;11.93;7.90;;;15.10;99.90;;;;;;20911567;28;20215;-73
